createdAt,value
2022-08-23T00:02:10.124Z,16.64
2022-08-23T00:04:56.883Z,16.58
2022-08-23T00:07:43.732Z,16.65
2022-08-23T00:10:15.891Z,16.63
2022-08-23T00:12:46.346Z,16.69
2022-08-23T00:15:16.179Z,16.66
2022-08-23T00:17:43.926Z,16.66
2022-08-23T00:20:18.221Z,16.75
2022-08-23T00:22:45.902Z,16.74
2022-08-23T00:25:15.579Z,16.76
2022-08-23T00:27:43.619Z,16.78
2022-08-23T00:30:14.185Z,16.79
2022-08-23T00:32:42.687Z,16.88
2022-08-23T00:35:12.869Z,16.92
2022-08-23T00:38:31.957Z,16.89
2022-08-23T00:40:40.497Z,16.93
2022-08-23T00:43:32.999Z,16.98
2022-08-23T00:46:54.162Z,16.98
2022-08-23T00:49:22.639Z,16.94
2022-08-23T00:52:02.581Z,17.00
2022-08-23T00:54:31.234Z,17.05
2022-08-23T00:57:03.646Z,17.09
2022-08-23T00:59:32.020Z,17.13
2022-08-23T01:02:01.215Z,17.17
2022-08-23T01:04:36.882Z,17.08
2022-08-23T01:07:14.039Z,17.05
2022-08-23T01:09:44.904Z,17.08
2022-08-23T01:12:32.963Z,17.13
2022-08-23T01:15:35.531Z,17.15
2022-08-23T01:18:16.900Z,17.13
2022-08-23T01:20:52.402Z,17.02
2022-08-23T01:23:37.321Z,17.14
2022-08-23T01:26:05.818Z,17.20
2022-08-23T01:28:34.331Z,17.20
2022-08-23T01:31:02.637Z,17.25
2022-08-23T01:33:35.992Z,17.13
2022-08-23T01:36:10.945Z,17.18
2022-08-23T01:38:39.271Z,17.21
2022-08-23T01:41:07.094Z,17.13
2022-08-23T01:43:34.956Z,17.12
2022-08-23T01:46:18.137Z,17.21
2022-08-23T01:48:48.267Z,17.17
2022-08-23T01:51:17.409Z,17.22
2022-08-23T01:53:49.484Z,17.26
2022-08-23T01:56:28.076Z,17.28
2022-08-23T01:59:10.719Z,17.31
2022-08-23T02:01:43.864Z,17.24
2022-08-23T02:04:11.273Z,17.23
2022-08-23T02:06:39.189Z,17.24
2022-08-23T02:09:17.194Z,17.26
2022-08-23T02:11:47.581Z,17.32
2022-08-23T02:14:20.658Z,17.31
2022-08-23T02:17:03.887Z,17.35
2022-08-23T02:19:36.767Z,17.29
2022-08-23T02:22:07.626Z,17.30
2022-08-23T02:24:39.029Z,17.31
2022-08-23T02:27:06.930Z,17.24
2022-08-23T02:29:40.692Z,17.25
2022-08-23T02:32:14.897Z,17.29
2022-08-23T02:34:43.716Z,17.32
2022-08-23T02:37:14.013Z,17.35
2022-08-23T02:39:42.638Z,17.35
2022-08-23T02:42:11.613Z,17.33
2022-08-23T02:44:42.367Z,17.38
2022-08-23T02:47:11.985Z,17.32
2022-08-23T02:49:42.641Z,17.38
2022-08-23T02:52:10.007Z,17.34
2022-08-23T02:54:37.466Z,17.41
2022-08-23T02:57:05.587Z,17.32
2022-08-23T02:59:33.145Z,17.33
2022-08-23T03:02:00.627Z,17.37
2022-08-23T03:04:32.997Z,17.38
2022-08-23T03:07:00.566Z,17.40
2022-08-23T03:09:28.301Z,17.44
2022-08-23T03:11:55.775Z,17.26
2022-08-23T03:14:24.792Z,17.28
2022-08-23T03:16:52.646Z,17.28
2022-08-23T03:19:20.228Z,17.34
2022-08-23T03:21:48.231Z,17.28
2022-08-23T03:24:17.945Z,17.24
2022-08-23T03:26:46.312Z,17.24
2022-08-23T03:29:15.966Z,17.30
2022-08-23T03:31:59.813Z,17.34
2022-08-23T03:34:28.535Z,17.37
2022-08-23T03:36:56.369Z,17.34
2022-08-23T03:39:24.207Z,17.30
2022-08-23T03:41:52.377Z,17.35
2022-08-23T03:44:20.013Z,17.25
2022-08-23T03:46:48.453Z,17.25
2022-08-23T03:49:15.758Z,17.35
2022-08-23T03:51:52.507Z,17.33
2022-08-23T03:54:20.739Z,17.40
2022-08-23T03:57:02.943Z,17.38
2022-08-23T03:59:36.978Z,17.43
2022-08-23T04:02:08.151Z,17.47
2022-08-23T04:04:35.732Z,17.48
2022-08-23T04:07:23.246Z,17.47
2022-08-23T04:09:55.340Z,17.53
2022-08-23T04:12:25.413Z,17.54
2022-08-23T04:14:53.791Z,17.60
2022-08-23T04:17:22.507Z,17.61
2022-08-23T04:19:52.372Z,17.67
2022-08-23T04:22:20.919Z,17.63
2022-08-23T04:24:49.185Z,17.68
2022-08-23T04:27:17.404Z,17.70
2022-08-23T04:29:46.496Z,17.67
2022-08-23T04:32:16.922Z,17.63
2022-08-23T04:34:58.373Z,17.74
2022-08-23T04:37:25.925Z,17.61
2022-08-23T04:40:12.141Z,17.64
2022-08-23T04:42:42.714Z,17.78
2022-08-23T04:45:11.758Z,17.81
2022-08-23T04:47:44.591Z,17.73
2022-08-23T04:50:12.867Z,17.65
2022-08-23T04:53:11.920Z,17.68
2022-08-23T04:55:50.493Z,17.81
2022-08-23T04:58:18.477Z,17.84
2022-08-23T05:00:53.825Z,17.80
2022-08-23T05:03:26.861Z,17.87
2022-08-23T05:05:58.381Z,17.90
2022-08-23T05:08:33.715Z,17.91
2022-08-23T05:11:04.112Z,17.92
2022-08-23T05:13:32.758Z,17.98
2022-08-23T05:16:04.260Z,17.99
2022-08-23T05:18:34.871Z,18.18
2022-08-23T05:21:03.157Z,18.06
2022-08-23T05:23:32.044Z,18.15
2022-08-23T05:26:06.710Z,18.21
2022-08-23T05:28:45.023Z,18.25
2022-08-23T05:31:25.930Z,18.47
2022-08-23T05:33:55.438Z,18.44
2022-08-23T05:36:54.612Z,18.59
2022-08-23T05:39:36.052Z,18.76
2022-08-23T05:42:09.197Z,19.06
2022-08-23T05:44:37.942Z,19.22
2022-08-23T05:47:10.362Z,19.45
2022-08-23T05:49:46.283Z,19.83
2022-08-23T05:52:14.995Z,20.03
2022-08-23T05:54:44.326Z,19.94
2022-08-23T05:57:34.281Z,19.95
2022-08-23T06:00:01.653Z,19.75
2022-08-23T06:02:30.422Z,19.80
2022-08-23T06:04:58.046Z,20.09
2022-08-23T06:07:25.407Z,20.19
2022-08-23T06:09:55.117Z,20.32
2022-08-23T06:12:22.622Z,20.59
2022-08-23T06:14:50.044Z,20.86
2022-08-23T06:17:20.592Z,20.59
2022-08-23T06:19:47.980Z,20.55
2022-08-23T06:22:38.410Z,20.42
2022-08-23T06:25:09.566Z,20.27
2022-08-23T06:27:56.509Z,20.24
2022-08-23T06:30:24.122Z,20.26
2022-08-23T06:32:57.216Z,20.15
2022-08-23T06:35:44.804Z,19.96
2022-08-23T06:38:18.831Z,19.98
2022-08-23T06:40:48.984Z,19.83
2022-08-23T06:43:26.354Z,19.85
2022-08-23T06:46:29.353Z,20.01
2022-08-23T06:49:00.915Z,20.05
2022-08-23T06:51:33.375Z,20.07
2022-08-23T06:54:30.337Z,19.97
2022-08-23T06:57:01.555Z,19.95
2022-08-23T06:59:31.465Z,19.91
2022-08-23T07:02:16.211Z,19.87
2022-08-23T07:04:58.952Z,19.84
2022-08-23T07:07:45.115Z,19.85
2022-08-23T07:10:15.637Z,19.80
2022-08-23T07:12:44.337Z,19.88
2022-08-23T07:15:13.876Z,19.67
2022-08-23T07:17:45.916Z,19.70
2022-08-23T07:20:13.793Z,19.76
2022-08-23T07:22:44.559Z,19.88
2022-08-23T07:25:12.556Z,19.88
2022-08-23T07:27:40.848Z,19.79
2022-08-23T07:30:10.300Z,19.93
2022-08-23T07:32:40.679Z,20.07
2022-08-23T07:35:21.524Z,20.14
2022-08-23T07:37:50.321Z,20.37
2022-08-23T07:40:20.634Z,20.43
2022-08-23T07:42:51.824Z,20.67
2022-08-23T07:45:23.059Z,20.77
2022-08-23T07:47:54.442Z,20.62
2022-08-23T07:50:23.962Z,20.62
2022-08-23T07:52:58.148Z,20.85
2022-08-23T07:55:25.427Z,20.73
2022-08-23T07:58:13.863Z,20.71
2022-08-23T08:00:54.328Z,20.48
2022-08-23T08:03:39.991Z,20.44
2022-08-23T08:06:31.634Z,20.40
2022-08-23T08:09:00.134Z,20.43
2022-08-23T08:11:34.942Z,20.29
2022-08-23T08:14:08.501Z,20.17
2022-08-23T08:16:46.902Z,20.01
2022-08-23T08:19:20.015Z,20.01
2022-08-23T08:22:06.147Z,20.00
2022-08-23T08:24:51.787Z,20.07
2022-08-23T08:27:19.232Z,19.85
2022-08-23T08:29:46.901Z,20.07
2022-08-23T08:32:15.732Z,20.22
2022-08-23T08:34:44.516Z,20.40
2022-08-23T08:37:12.534Z,20.53
2022-08-23T08:39:46.927Z,20.67
2022-08-23T08:42:58.742Z,21.09
2022-08-23T08:45:32.748Z,21.26
2022-08-23T08:48:13.358Z,21.60
2022-08-23T08:50:57.897Z,21.89
2022-08-23T08:53:38.950Z,21.96
2022-08-23T08:56:32.771Z,22.20
2022-08-23T08:59:56.378Z,22.38
2022-08-23T09:02:32.343Z,22.44
2022-08-23T09:05:29.087Z,22.82
2022-08-23T09:08:37.649Z,22.84
2022-08-23T09:11:26.581Z,23.35
2022-08-23T09:14:26.820Z,23.19
2022-08-23T09:17:05.646Z,23.99
2022-08-23T09:19:38.320Z,24.86
2022-08-23T09:22:17.441Z,25.17
2022-08-23T09:24:44.889Z,25.23
2022-08-23T09:27:20.324Z,25.77
2022-08-23T09:30:01.241Z,26.56
2022-08-23T09:32:34.434Z,26.64
2022-08-23T09:35:25.910Z,26.40
2022-08-23T09:38:11.387Z,26.81
2022-08-23T09:40:51.317Z,25.97
2022-08-23T09:43:27.650Z,25.74
2022-08-23T09:46:02.212Z,26.10
2022-08-23T09:48:44.150Z,26.49
2022-08-23T09:51:37.668Z,28.00
2022-08-23T09:54:21.643Z,27.92
2022-08-23T09:56:57.878Z,27.79
2022-08-23T09:59:26.575Z,27.40
2022-08-23T10:02:02.250Z,26.60
2022-08-23T10:04:55.550Z,26.07
2022-08-23T10:07:34.915Z,25.41
2022-08-23T10:10:28.332Z,25.11
2022-08-23T10:12:59.740Z,24.84
2022-08-23T10:15:40.007Z,24.52
2022-08-23T10:18:53.695Z,24.61
2022-08-23T10:21:36.904Z,24.49
2022-08-23T10:24:43.700Z,25.13
2022-08-23T10:27:50.544Z,25.27
2022-08-23T10:30:23.694Z,25.03
2022-08-23T10:33:29.913Z,24.78
2022-08-23T10:36:47.312Z,24.41
2022-08-23T10:39:30.845Z,24.41
2022-08-23T10:42:23.763Z,24.24
2022-08-23T10:45:25.352Z,25.03
2022-08-23T10:48:15.051Z,26.09
2022-08-23T10:51:21.207Z,26.41
2022-08-23T10:54:00.831Z,27.11
2022-08-23T10:56:29.380Z,27.03
2022-08-23T10:59:26.788Z,27.50
2022-08-23T11:02:28.227Z,28.08
2022-08-23T11:05:39.213Z,29.05
2022-08-23T11:08:47.714Z,30.42
2022-08-23T11:12:20.013Z,31.44
2022-08-23T11:14:54.801Z,32.14
2022-08-23T11:17:55.192Z,32.82
2022-08-23T11:20:50.646Z,32.96
2022-08-23T11:23:55.589Z,32.13
2022-08-23T11:26:23.255Z,31.61
2022-08-23T11:28:53.202Z,30.54
2022-08-23T11:31:36.773Z,30.11
2022-08-23T11:34:32.160Z,29.25
2022-08-23T11:37:24.631Z,29.31
2022-08-23T11:39:59.522Z,29.50
2022-08-23T11:42:38.367Z,28.48
2022-08-23T11:45:35.819Z,27.80
2022-08-23T11:48:43.519Z,28.31
2022-08-23T11:51:29.638Z,28.53
2022-08-23T11:54:31.586Z,27.96
2022-08-23T11:57:01.809Z,27.49
2022-08-23T12:00:12.809Z,27.13
2022-08-23T12:03:09.900Z,26.87
2022-08-23T12:06:05.206Z,26.11
2022-08-23T12:08:46.788Z,25.70
2022-08-23T12:11:16.822Z,25.33
2022-08-23T12:13:50.122Z,25.43
2022-08-23T12:16:18.766Z,25.48
2022-08-23T12:18:57.470Z,25.98
2022-08-23T12:21:39.150Z,26.59
2022-08-23T12:24:20.317Z,26.98
2022-08-23T12:27:08.020Z,27.27
2022-08-23T12:30:21.334Z,27.92
2022-08-23T12:33:11.696Z,28.01
2022-08-23T12:35:44.981Z,27.10
2022-08-23T12:38:48.617Z,26.76
2022-08-23T12:41:31.536Z,26.29
2022-08-23T12:44:09.980Z,26.07
2022-08-23T12:46:43.072Z,25.82
2022-08-23T12:49:30.353Z,25.85
2022-08-23T12:52:17.181Z,26.73
2022-08-23T12:54:50.287Z,27.22
2022-08-23T12:57:31.563Z,27.35
2022-08-23T13:00:26.552Z,27.34
2022-08-23T13:03:12.552Z,27.30
2022-08-23T13:06:15.773Z,26.56
2022-08-23T13:09:18.873Z,26.16
2022-08-23T13:11:47.506Z,25.85
2022-08-23T13:14:44.975Z,25.37
2022-08-23T13:17:27.192Z,25.18
2022-08-23T13:20:21.910Z,24.95
2022-08-23T13:23:07.043Z,24.94
2022-08-23T13:25:41.878Z,24.88
2022-08-23T13:28:31.204Z,24.78
2022-08-23T13:31:08.168Z,24.57
2022-08-23T13:33:36.215Z,24.49
2022-08-23T13:36:21.439Z,24.46
2022-08-23T13:38:49.611Z,24.71
2022-08-23T13:41:39.152Z,25.23
2022-08-23T13:44:08.951Z,25.21
2022-08-23T13:46:46.705Z,25.25
2022-08-23T13:49:27.461Z,25.07
2022-08-23T13:52:18.626Z,25.18
2022-08-23T13:54:50.829Z,25.39
2022-08-23T13:57:22.211Z,25.56
2022-08-23T13:59:59.067Z,25.41
2022-08-23T14:02:26.919Z,25.18
2022-08-23T14:04:54.445Z,25.10
2022-08-23T14:07:22.025Z,24.80
2022-08-23T14:09:52.064Z,24.74
2022-08-23T14:12:27.707Z,24.41
2022-08-23T14:14:57.371Z,24.69
2022-08-23T14:17:25.798Z,24.71
2022-08-23T14:22:41.210Z,24.62
2022-08-23T14:25:11.074Z,24.42
2022-08-23T14:27:44.771Z,24.30
2022-08-23T14:30:46.070Z,24.63
2022-08-23T14:33:13.774Z,24.67
2022-08-23T14:35:42.115Z,24.95
2022-08-23T14:38:10.386Z,24.87
2022-08-23T14:40:37.776Z,24.97
2022-08-23T14:43:05.906Z,24.91
2022-08-23T14:45:33.402Z,24.95
2022-08-23T14:48:00.961Z,24.71
2022-08-23T14:50:28.734Z,24.26
2022-08-23T14:52:56.509Z,23.84
2022-08-23T14:55:25.201Z,23.49
2022-08-23T14:57:52.871Z,23.58
2022-08-23T15:00:20.353Z,23.60
2022-08-23T15:02:50.142Z,23.51
2022-08-23T15:05:18.385Z,23.74
2022-08-23T15:07:46.058Z,23.81
2022-08-23T15:13:19.550Z,23.66
2022-08-23T15:15:49.891Z,23.63
2022-08-23T15:18:18.203Z,23.84
2022-08-23T15:20:46.098Z,23.69
2022-08-23T15:23:13.996Z,23.51
2022-08-23T15:25:43.939Z,23.60
2022-08-23T15:28:15.969Z,23.80
2022-08-23T15:30:44.465Z,23.94
2022-08-23T15:33:12.735Z,23.80
2022-08-23T15:35:47.587Z,23.29
2022-08-23T15:38:17.932Z,23.28
2022-08-23T15:40:45.983Z,23.15
2022-08-23T15:43:13.443Z,22.85
2022-08-23T15:45:41.262Z,22.88
2022-08-23T15:48:29.746Z,22.81
2022-08-23T15:50:59.369Z,22.96
2022-08-23T15:53:27.345Z,23.04
2022-08-23T15:55:54.856Z,22.97
2022-08-23T15:58:26.217Z,22.96
2022-08-23T16:00:54.401Z,22.73
2022-08-23T16:03:22.918Z,22.51
2022-08-23T16:05:53.760Z,22.17
2022-08-23T16:08:29.552Z,21.97
2022-08-23T16:10:58.628Z,21.79
2022-08-23T16:13:27.147Z,21.72
2022-08-23T16:15:54.912Z,21.71
2022-08-23T16:18:22.266Z,21.74
2022-08-23T16:20:54.201Z,21.65
2022-08-23T16:23:23.190Z,21.55
2022-08-23T16:25:51.634Z,21.57
2022-08-23T16:28:19.129Z,21.52
2022-08-23T16:30:46.780Z,21.47
2022-08-23T16:33:14.193Z,21.47
2022-08-23T16:35:41.585Z,21.42
2022-08-23T16:38:09.623Z,21.31
2022-08-23T16:40:37.086Z,21.21
2022-08-23T16:43:04.540Z,21.19
2022-08-23T16:45:32.160Z,21.07
2022-08-23T16:48:00.553Z,20.92
2022-08-23T16:50:28.289Z,20.69
2022-08-23T16:52:55.701Z,20.70
2022-08-23T16:55:23.318Z,20.73
2022-08-23T16:57:50.853Z,20.79
2022-08-23T17:00:18.325Z,20.73
2022-08-23T17:02:46.164Z,20.68
2022-08-23T17:05:17.669Z,20.46
2022-08-23T17:07:46.104Z,20.44
2022-08-23T17:10:17.056Z,20.39
2022-08-23T17:12:47.408Z,20.34
2022-08-23T17:15:20.299Z,20.28
2022-08-23T17:17:49.207Z,20.23
2022-08-23T17:20:18.773Z,20.18
2022-08-23T17:22:47.281Z,20.10
2022-08-23T17:25:15.607Z,20.06
2022-08-23T17:27:46.371Z,20.04
2022-08-23T17:30:19.911Z,19.93
2022-08-23T17:32:48.241Z,19.83
2022-08-23T17:35:20.915Z,19.93
2022-08-23T17:37:48.619Z,19.94
2022-08-23T17:40:23.397Z,19.91
2022-08-23T17:42:50.934Z,19.89
2022-08-23T17:45:19.162Z,19.90
2022-08-23T17:47:47.157Z,19.89
2022-08-23T17:50:17.071Z,19.91
2022-08-23T17:52:45.503Z,19.85
2022-08-23T17:55:18.344Z,19.68
2022-08-23T17:57:48.436Z,19.76
2022-08-23T18:00:18.939Z,19.79
2022-08-23T18:02:46.265Z,19.73
2022-08-23T18:05:14.021Z,19.75
2022-08-23T18:07:41.466Z,19.80
2022-08-23T18:10:12.086Z,19.85
2022-08-23T18:12:40.967Z,19.80
2022-08-23T18:15:10.725Z,19.82
2022-08-23T18:17:39.620Z,19.82
2022-08-23T18:20:10.386Z,19.72
2022-08-23T18:22:39.991Z,19.72
2022-08-23T18:25:10.278Z,19.67
2022-08-23T18:27:56.194Z,19.65
2022-08-23T18:30:24.184Z,19.70
2022-08-23T18:32:51.660Z,19.76
2022-08-23T18:35:19.938Z,19.76
2022-08-23T18:37:47.560Z,19.72
2022-08-23T18:40:15.203Z,19.70
2022-08-23T18:42:42.617Z,19.65
2022-08-23T18:45:10.468Z,19.61
2022-08-23T18:47:38.264Z,19.54
2022-08-23T18:50:09.278Z,19.53
2022-08-23T18:52:37.720Z,19.48
2022-08-23T18:55:06.749Z,19.48
2022-08-23T18:57:34.522Z,19.47
2022-08-23T19:00:02.884Z,19.31
2022-08-23T19:02:30.594Z,19.29
2022-08-23T19:04:58.302Z,19.31
2022-08-23T19:07:26.019Z,19.28
2022-08-23T19:09:53.725Z,19.32
2022-08-23T19:12:22.145Z,19.32
2022-08-23T19:14:49.857Z,19.28
2022-08-23T19:17:17.159Z,19.34
2022-08-23T19:19:44.471Z,19.40
2022-08-23T19:22:12.760Z,19.45
2022-08-23T19:24:40.792Z,19.39
2022-08-23T19:27:09.086Z,19.45
2022-08-23T19:29:36.566Z,19.33
2022-08-23T19:32:04.748Z,19.45
2022-08-23T19:34:32.246Z,19.54
2022-08-23T19:37:01.423Z,19.52
2022-08-23T19:39:30.016Z,19.49
2022-08-23T19:41:58.204Z,19.45
2022-08-23T19:44:25.616Z,19.41
2022-08-23T19:46:54.995Z,19.42
2022-08-23T19:49:23.374Z,19.41
2022-08-23T19:51:50.718Z,19.51
2022-08-23T19:54:18.293Z,19.42
2022-08-23T19:56:57.716Z,19.40
2022-08-23T19:59:33.147Z,19.30
2022-08-23T20:02:01.515Z,19.24
2022-08-23T20:04:33.026Z,19.25
2022-08-23T20:07:02.558Z,19.22
2022-08-23T20:09:32.299Z,19.28
2022-08-23T20:12:01.431Z,19.23
2022-08-23T20:14:31.168Z,19.25
2022-08-23T20:16:58.929Z,19.18
2022-08-23T20:19:26.862Z,19.23
2022-08-23T20:22:16.199Z,19.28
2022-08-23T20:24:51.269Z,19.28
2022-08-23T20:27:29.014Z,19.29
2022-08-23T20:30:01.512Z,19.29
2022-08-23T20:32:29.906Z,19.28
2022-08-23T20:34:57.693Z,19.23
2022-08-23T20:37:25.531Z,19.16
2022-08-23T20:39:53.231Z,19.00
2022-08-23T20:42:20.606Z,18.99
2022-08-23T20:44:47.865Z,18.96
2022-08-23T20:47:15.534Z,18.92
2022-08-23T20:49:42.998Z,18.91
2022-08-23T20:52:10.333Z,18.90
2022-08-23T20:54:38.415Z,18.83
2022-08-23T20:57:05.959Z,18.97
2022-08-23T20:59:33.127Z,18.98
2022-08-23T21:02:00.497Z,19.03
2022-08-23T21:04:30.336Z,19.01
2022-08-23T21:06:58.612Z,19.05
2022-08-23T21:09:29.270Z,19.13
2022-08-23T21:11:57.641Z,19.19
2022-08-23T21:14:25.001Z,19.23
2022-08-23T21:16:52.250Z,19.26
2022-08-23T21:19:19.684Z,19.26
2022-08-23T21:21:47.097Z,19.26
2022-08-23T21:24:15.288Z,19.17
2022-08-23T21:26:42.719Z,19.21
2022-08-23T21:29:10.820Z,19.22
2022-08-23T21:31:39.729Z,19.28
2022-08-23T21:34:08.333Z,19.26
2022-08-23T21:36:36.645Z,19.21
2022-08-23T21:39:05.355Z,19.16
2022-08-23T21:41:35.920Z,19.21
2022-08-23T21:44:08.467Z,19.25
2022-08-23T21:46:36.127Z,19.18
2022-08-23T21:49:04.365Z,19.17
2022-08-23T21:51:32.011Z,19.03
2022-08-23T21:54:02.965Z,18.90
2022-08-23T21:56:31.317Z,18.90
2022-08-23T21:59:04.430Z,18.91
2022-08-23T22:01:35.626Z,18.97
2022-08-23T22:04:07.611Z,18.92
2022-08-23T22:06:38.026Z,18.89
2022-08-23T22:09:07.448Z,18.91
2022-08-23T22:11:40.685Z,18.91
2022-08-23T22:14:21.620Z,18.95
2022-08-23T22:16:49.680Z,18.97
2022-08-23T22:19:22.715Z,18.91
2022-08-23T22:21:52.588Z,19.00
2022-08-23T22:24:25.262Z,18.97
2022-08-23T22:26:55.245Z,18.91
2022-08-23T22:29:23.396Z,18.96
2022-08-23T22:31:50.938Z,18.99
2022-08-23T22:34:18.225Z,19.02
2022-08-23T22:36:46.277Z,19.06
2022-08-23T22:39:19.694Z,18.97
2022-08-23T22:41:47.145Z,19.01
2022-08-23T22:44:14.573Z,18.88
2022-08-23T22:46:43.179Z,18.86
2022-08-23T22:49:10.648Z,18.92
2022-08-23T22:51:38.745Z,18.85
2022-08-23T22:54:11.311Z,18.95
2022-08-23T22:56:51.032Z,18.97
2022-08-23T22:59:21.918Z,18.81
2022-08-23T23:01:58.290Z,18.85
2022-08-23T23:04:27.597Z,18.80
2022-08-23T23:06:56.166Z,18.85
2022-08-23T23:09:24.710Z,18.85
2022-08-23T23:11:53.149Z,18.88
2022-08-23T23:14:21.752Z,18.85
2022-08-23T23:16:50.072Z,18.85
2022-08-23T23:19:36.893Z,18.95
2022-08-23T23:22:06.628Z,18.90
2022-08-23T23:24:38.354Z,18.92
2022-08-23T23:27:06.406Z,18.92
2022-08-23T23:29:33.964Z,18.93
2022-08-23T23:32:01.450Z,18.96
2022-08-23T23:34:30.171Z,18.85
2022-08-23T23:36:58.584Z,18.82
2022-08-23T23:39:27.931Z,18.84
2022-08-23T23:41:55.920Z,18.86
2022-08-23T23:44:29.918Z,18.81
2022-08-23T23:47:01.588Z,18.86
2022-08-23T23:49:32.303Z,18.92
2022-08-23T23:52:04.721Z,18.90
2022-08-23T23:54:33.929Z,18.88
2022-08-23T23:57:01.949Z,18.81
2022-08-23T23:59:29.348Z,18.86
